ANDO2: Washita River, OK

Data processed at Thu Jan 04 2018 23:36


All information presented herein is the property of the government of the United States of America and may be revised or deleted at any time without prior notice.
Dissemination of this information without the expressed written consent of the Public Affairs Office, Tulsa District U.S. Army Corps of Engineers is strictly prohibited.
These data are gathered electronically and, as presented, have not undergone any form of quality control. These data are not guaranteed to be valid or correct.
Go to home page.
Go to station list.

Upstream stations:

Downstream station:
Previous Day
Next Day
Current Day
    
SHEF ID:       ANDO2     Washita River at Anadarko, OK
STATION TYPE:  

               PRECIP PRECIP(A)     STAGE  RIV-FLOW  BAT-LOAD
                   in        in        ft       cfs      volt
              Ccp-Rev   Ccp-Rev   Ccp-Rev   Ccp-Rev   Ccp-Rev
(US/Central)
01/02 00:00      0.00      0.00      7.67       437     12.57
01/02 01:00      0.00      0.00      7.69       447     12.57
01/02 02:00      0.00      0.00      7.71       457     12.57
01/02 03:00      0.00      0.00      7.70       452     12.49
01/02 04:00      0.00      0.00      7.70       452     12.49
01/02 05:00      0.00      0.00      7.70       452     12.41
01/02 06:00      0.00      0.00      7.71       457     12.41
01/02 07:00      0.00      0.00      7.71       457     12.33
01/02 08:00      0.00      0.00      7.71       457     12.33
01/02 09:00      0.00      0.00      7.70       452     12.41
01/02 10:00      0.00      0.00      7.72       462     13.29
01/02 11:00      0.00      0.00      7.73       468     13.44
01/02 12:00      0.00      0.00      7.73       468     13.44
01/02 13:00      0.00      0.00      7.70       452     13.44
01/02 14:00      0.00      0.00      7.67       437     13.44
01/02 15:00      0.00      0.00      7.60       401     13.37
01/02 16:00      0.00      0.00      7.56       382     13.37
01/02 17:00      0.00      0.00      7.53       367     13.29
01/02 18:00      0.00      0.00      7.53       367     13.21
01/02 19:00      0.00      0.00      7.54       372     12.89
01/02 20:00      0.00      0.00      7.58       392     12.73
01/02 21:00      0.00      0.00      7.61       406     12.65
01/02 22:00      0.00      0.00      7.64       421     12.65
01/02 23:00      0.00      0.00      7.67       437     12.65